sensor_id;sensor_type;location;lat;lon;timestamp;P1;durP1;ratioP1;P2;durP2;ratioP2
21987;SDS011;11158;53.404;-1.510;2023-05-01T00:02:09;8.45;;;6.53;;
21987;SDS011;11158;53.404;-1.510;2023-05-01T00:04:54;8.55;;;6.68;;
21987;SDS011;11158;53.404;-1.510;2023-05-01T00:07:38;8.77;;;6.95;;
21987;SDS011;11158;53.404;-1.510;2023-05-01T00:10:23;8.77;;;6.85;;
21987;SDS011;11158;53.404;-1.510;2023-05-01T00:13:06;8.98;;;6.95;;
21987;SDS011;11158;53.404;-1.510;2023-05-01T00:15:52;8.88;;;6.53;;
21987;SDS011;11158;53.404;-1.510;2023-05-01T00:18:36;8.00;;;6.30;;
21987;SDS011;11158;53.404;-1.510;2023-05-01T00:21:22;10.55;;;5.60;;
21987;SDS011;11158;53.404;-1.510;2023-05-01T00:24:06;7.25;;;4.63;;
21987;SDS011;11158;53.404;-1.510;2023-05-01T00:26:50;7.43;;;4.50;;
21987;SDS011;11158;53.404;-1.510;2023-05-01T00:29:34;7.65;;;3.50;;
21987;SDS011;11158;53.404;-1.510;2023-05-01T00:32:18;7.47;;;3.17;;
21987;SDS011;11158;53.404;-1.510;2023-05-01T00:35:02;7.75;;;3.50;;
21987;SDS011;11158;53.404;-1.510;2023-05-01T00:37:46;8.50;;;4.00;;
21987;SDS011;11158;53.404;-1.510;2023-05-01T00:40:30;6.88;;;3.97;;
21987;SDS011;11158;53.404;-1.510;2023-05-01T00:43:14;5.80;;;3.67;;
21987;SDS011;11158;53.404;-1.510;2023-05-01T00:45:59;7.10;;;3.97;;
21987;SDS011;11158;53.404;-1.510;2023-05-01T00:48:44;6.40;;;3.50;;
21987;SDS011;11158;53.404;-1.510;2023-05-01T00:51:29;7.22;;;3.47;;
21987;SDS011;11158;53.404;-1.510;2023-05-01T00:54:14;8.52;;;3.78;;
21987;SDS011;11158;53.404;-1.510;2023-05-01T00:56:58;5.47;;;3.55;;
21987;SDS011;11158;53.404;-1.510;2023-05-01T00:59:42;8.43;;;3.72;;
21987;SDS011;11158;53.404;-1.510;2023-05-01T01:02:26;5.47;;;3.38;;
21987;SDS011;11158;53.404;-1.510;2023-05-01T01:05:10;7.22;;;3.35;;
21987;SDS011;11158;53.404;-1.510;2023-05-01T01:11:19;11.38;;;3.55;;
21987;SDS011;11158;53.404;-1.510;2023-05-01T01:14:16;9.48;;;3.42;;
21987;SDS011;11158;53.404;-1.510;2023-05-01T01:17:10;6.53;;;2.90;;
21987;SDS011;11158;53.404;-1.510;2023-05-01T01:23:09;9.73;;;3.35;;
21987;SDS011;11158;53.404;-1.510;2023-05-01T01:26:12;10.02;;;4.28;;
21987;SDS011;11158;53.404;-1.510;2023-05-01T01:29:27;9.73;;;6.32;;
21987;SDS011;11158;53.404;-1.510;2023-05-01T01:35:19;12.38;;;6.28;;
21987;SDS011;11158;53.404;-1.510;2023-05-01T01:38:19;11.07;;;6.00;;
21987;SDS011;11158;53.404;-1.510;2023-05-01T01:41:25;8.43;;;5.07;;
21987;SDS011;11158;53.404;-1.510;2023-05-01T01:44:15;7.63;;;4.72;;
21987;SDS011;11158;53.404;-1.510;2023-05-01T01:47:04;7.50;;;5.32;;
21987;SDS011;11158;53.404;-1.510;2023-05-01T01:49:51;10.95;;;6.15;;
21987;SDS011;11158;53.404;-1.510;2023-05-01T01:52:36;10.85;;;6.57;;
21987;SDS011;11158;53.404;-1.510;2023-05-01T01:55:24;9.77;;;6.57;;
21987;SDS011;11158;53.404;-1.510;2023-05-01T01:58:12;9.60;;;6.53;;
21987;SDS011;11158;53.404;-1.510;2023-05-01T02:00:59;12.95;;;6.35;;
21987;SDS011;11158;53.404;-1.510;2023-05-01T02:03:45;10.50;;;6.93;;
21987;SDS011;11158;53.404;-1.510;2023-05-01T02:06:31;9.80;;;6.97;;
21987;SDS011;11158;53.404;-1.510;2023-05-01T02:09:17;9.10;;;7.18;;
21987;SDS011;11158;53.404;-1.510;2023-05-01T02:12:04;11.32;;;7.13;;
21987;SDS011;11158;53.404;-1.510;2023-05-01T02:14:50;11.70;;;7.15;;
21987;SDS011;11158;53.404;-1.510;2023-05-01T02:17:36;9.75;;;7.15;;
21987;SDS011;11158;53.404;-1.510;2023-05-01T02:20:22;10.32;;;7.40;;
21987;SDS011;11158;53.404;-1.510;2023-05-01T02:23:06;12.43;;;7.82;;
21987;SDS011;11158;53.404;-1.510;2023-05-01T02:25:52;11.15;;;7.25;;
21987;SDS011;11158;53.404;-1.510;2023-05-01T02:28:39;15.65;;;7.82;;
21987;SDS011;11158;53.404;-1.510;2023-05-01T02:31:24;9.63;;;7.15;;
21987;SDS011;11158;53.404;-1.510;2023-05-01T02:34:09;8.20;;;6.53;;
21987;SDS011;11158;53.404;-1.510;2023-05-01T02:36:54;12.30;;;7.95;;
21987;SDS011;11158;53.404;-1.510;2023-05-01T02:39:38;11.38;;;7.13;;
21987;SDS011;11158;53.404;-1.510;2023-05-01T02:42:23;14.88;;;6.80;;
21987;SDS011;11158;53.404;-1.510;2023-05-01T02:45:09;12.43;;;7.47;;
21987;SDS011;11158;53.404;-1.510;2023-05-01T02:48:02;14.02;;;7.47;;
21987;SDS011;11158;53.404;-1.510;2023-05-01T02:50:49;9.95;;;7.55;;
21987;SDS011;11158;53.404;-1.510;2023-05-01T02:53:34;8.15;;;6.00;;
21987;SDS011;11158;53.404;-1.510;2023-05-01T02:56:19;8.88;;;6.35;;
21987;SDS011;11158;53.404;-1.510;2023-05-01T02:59:03;8.38;;;5.75;;
21987;SDS011;11158;53.404;-1.510;2023-05-01T03:01:47;8.73;;;6.40;;
21987;SDS011;11158;53.404;-1.510;2023-05-01T03:04:31;7.60;;;6.32;;
21987;SDS011;11158;53.404;-1.510;2023-05-01T03:07:15;8.13;;;6.18;;
21987;SDS011;11158;53.404;-1.510;2023-05-01T03:10:03;7.85;;;5.93;;
21987;SDS011;11158;53.404;-1.510;2023-05-01T03:12:50;11.43;;;6.40;;
21987;SDS011;11158;53.404;-1.510;2023-05-01T03:15:34;12.50;;;6.65;;
21987;SDS011;11158;53.404;-1.510;2023-05-01T03:18:19;11.07;;;6.22;;
21987;SDS011;11158;53.404;-1.510;2023-05-01T03:21:03;10.27;;;5.95;;
21987;SDS011;11158;53.404;-1.510;2023-05-01T03:23:47;9.23;;;5.95;;
21987;SDS011;11158;53.404;-1.510;2023-05-01T03:26:31;8.82;;;6.50;;
21987;SDS011;11158;53.404;-1.510;2023-05-01T03:29:15;9.50;;;5.35;;
21987;SDS011;11158;53.404;-1.510;2023-05-01T03:31:59;8.20;;;5.32;;
21987;SDS011;11158;53.404;-1.510;2023-05-01T03:34:44;6.53;;;5.60;;
21987;SDS011;11158;53.404;-1.510;2023-05-01T03:37:28;6.43;;;5.03;;
21987;SDS011;11158;53.404;-1.510;2023-05-01T03:40:12;8.07;;;5.68;;
21987;SDS011;11158;53.404;-1.510;2023-05-01T03:42:56;7.50;;;5.00;;
21987;SDS011;11158;53.404;-1.510;2023-05-01T03:45:42;6.88;;;5.10;;
21987;SDS011;11158;53.404;-1.510;2023-05-01T03:48:26;5.80;;;4.38;;
21987;SDS011;11158;53.404;-1.510;2023-05-01T03:51:10;6.50;;;4.35;;
21987;SDS011;11158;53.404;-1.510;2023-05-01T03:53:54;6.43;;;4.57;;
21987;SDS011;11158;53.404;-1.510;2023-05-01T03:56:41;6.10;;;4.55;;
21987;SDS011;11158;53.404;-1.510;2023-05-01T03:59:25;6.13;;;4.20;;
21987;SDS011;11158;53.404;-1.510;2023-05-01T04:02:09;4.97;;;3.90;;
21987;SDS011;11158;53.404;-1.510;2023-05-01T04:04:53;5.97;;;4.15;;
21987;SDS011;11158;53.404;-1.510;2023-05-01T04:07:37;5.93;;;4.30;;
21987;SDS011;11158;53.404;-1.510;2023-05-01T04:10:22;6.60;;;4.07;;
21987;SDS011;11158;53.404;-1.510;2023-05-01T04:13:06;4.45;;;4.03;;
21987;SDS011;11158;53.404;-1.510;2023-05-01T04:15:50;8.00;;;4.07;;
21987;SDS011;11158;53.404;-1.510;2023-05-01T04:18:35;7.25;;;4.18;;
21987;SDS011;11158;53.404;-1.510;2023-05-01T04:21:19;5.88;;;4.53;;
21987;SDS011;11158;53.404;-1.510;2023-05-01T04:24:03;5.20;;;3.80;;
21987;SDS011;11158;53.404;-1.510;2023-05-01T04:26:48;4.15;;;3.58;;
21987;SDS011;11158;53.404;-1.510;2023-05-01T04:29:33;5.72;;;3.70;;
21987;SDS011;11158;53.404;-1.510;2023-05-01T04:32:17;4.88;;;3.50;;
21987;SDS011;11158;53.404;-1.510;2023-05-01T04:35:00;6.30;;;3.45;;
21987;SDS011;11158;53.404;-1.510;2023-05-01T04:37:45;4.40;;;3.28;;
21987;SDS011;11158;53.404;-1.510;2023-05-01T04:40:30;4.68;;;2.80;;
21987;SDS011;11158;53.404;-1.510;2023-05-01T04:43:14;4.95;;;3.25;;
21987;SDS011;11158;53.404;-1.510;2023-05-01T04:45:58;5.28;;;3.67;;
21987;SDS011;11158;53.404;-1.510;2023-05-01T04:48:42;5.63;;;3.50;;
21987;SDS011;11158;53.404;-1.510;2023-05-01T04:51:26;3.92;;;3.33;;
21987;SDS011;11158;53.404;-1.510;2023-05-01T04:54:11;5.13;;;3.30;;
21987;SDS011;11158;53.404;-1.510;2023-05-01T04:56:55;5.03;;;3.17;;
21987;SDS011;11158;53.404;-1.510;2023-05-01T04:59:39;5.20;;;3.72;;
21987;SDS011;11158;53.404;-1.510;2023-05-01T05:02:23;6.10;;;3.05;;
21987;SDS011;11158;53.404;-1.510;2023-05-01T05:05:08;3.22;;;2.90;;
21987;SDS011;11158;53.404;-1.510;2023-05-01T05:07:53;5.95;;;3.20;;
21987;SDS011;11158;53.404;-1.510;2023-05-01T05:10:37;3.40;;;3.03;;
21987;SDS011;11158;53.404;-1.510;2023-05-01T05:13:21;4.28;;;3.20;;
21987;SDS011;11158;53.404;-1.510;2023-05-01T05:16:05;6.40;;;2.88;;
21987;SDS011;11158;53.404;-1.510;2023-05-01T05:18:50;4.45;;;3.28;;
21987;SDS011;11158;53.404;-1.510;2023-05-01T05:21:34;5.75;;;3.67;;
21987;SDS011;11158;53.404;-1.510;2023-05-01T05:24:18;8.23;;;4.00;;
21987;SDS011;11158;53.404;-1.510;2023-05-01T05:27:02;4.65;;;3.47;;
21987;SDS011;11158;53.404;-1.510;2023-05-01T05:29:47;7.43;;;3.78;;
21987;SDS011;11158;53.404;-1.510;2023-05-01T05:32:31;4.47;;;3.50;;
21987;SDS011;11158;53.404;-1.510;2023-05-01T05:35:16;4.88;;;3.28;;
21987;SDS011;11158;53.404;-1.510;2023-05-01T05:38:00;7.10;;;4.22;;
21987;SDS011;11158;53.404;-1.510;2023-05-01T05:40:45;5.97;;;3.92;;
21987;SDS011;11158;53.404;-1.510;2023-05-01T05:43:29;7.57;;;4.03;;
21987;SDS011;11158;53.404;-1.510;2023-05-01T05:46:13;6.22;;;4.50;;
21987;SDS011;11158;53.404;-1.510;2023-05-01T05:48:57;5.65;;;3.85;;
21987;SDS011;11158;53.404;-1.510;2023-05-01T05:51:42;6.97;;;4.13;;
21987;SDS011;11158;53.404;-1.510;2023-05-01T05:54:26;6.93;;;4.82;;
21987;SDS011;11158;53.404;-1.510;2023-05-01T05:57:10;6.03;;;4.22;;
21987;SDS011;11158;53.404;-1.510;2023-05-01T05:59:55;7.82;;;4.35;;
21987;SDS011;11158;53.404;-1.510;2023-05-01T06:02:40;8.20;;;5.20;;
21987;SDS011;11158;53.404;-1.510;2023-05-01T06:05:24;6.55;;;4.63;;
21987;SDS011;11158;53.404;-1.510;2023-05-01T06:08:08;6.38;;;4.55;;
21987;SDS011;11158;53.404;-1.510;2023-05-01T06:10:53;7.18;;;5.32;;
21987;SDS011;11158;53.404;-1.510;2023-05-01T06:13:37;5.28;;;4.40;;
21987;SDS011;11158;53.404;-1.510;2023-05-01T06:16:21;6.45;;;4.47;;
21987;SDS011;11158;53.404;-1.510;2023-05-01T06:19:06;5.78;;;4.05;;
21987;SDS011;11158;53.404;-1.510;2023-05-01T06:21:50;5.30;;;3.97;;
21987;SDS011;11158;53.404;-1.510;2023-05-01T06:24:35;5.70;;;3.40;;
21987;SDS011;11158;53.404;-1.510;2023-05-01T06:27:19;5.80;;;3.50;;
21987;SDS011;11158;53.404;-1.510;2023-05-01T06:30:04;3.75;;;3.35;;
21987;SDS011;11158;53.404;-1.510;2023-05-01T06:32:48;4.25;;;2.78;;
21987;SDS011;11158;53.404;-1.510;2023-05-01T06:35:33;4.45;;;2.92;;
21987;SDS011;11158;53.404;-1.510;2023-05-01T06:38:17;2.83;;;2.30;;
21987;SDS011;11158;53.404;-1.510;2023-05-01T06:41:02;4.15;;;2.30;;
21987;SDS011;11158;53.404;-1.510;2023-05-01T06:43:47;3.17;;;1.63;;
21987;SDS011;11158;53.404;-1.510;2023-05-01T06:46:31;3.05;;;2.10;;
21987;SDS011;11158;53.404;-1.510;2023-05-01T06:49:15;4.15;;;1.73;;
21987;SDS011;11158;53.404;-1.510;2023-05-01T06:51:59;3.90;;;1.67;;
21987;SDS011;11158;53.404;-1.510;2023-05-01T06:54:44;2.17;;;1.33;;
21987;SDS011;11158;53.404;-1.510;2023-05-01T06:57:28;2.88;;;1.65;;
21987;SDS011;11158;53.404;-1.510;2023-05-01T07:00:12;1.70;;;1.40;;
21987;SDS011;11158;53.404;-1.510;2023-05-01T07:02:57;2.53;;;1.20;;
21987;SDS011;11158;53.404;-1.510;2023-05-01T07:05:42;4.18;;;1.75;;
21987;SDS011;11158;53.404;-1.510;2023-05-01T07:08:26;2.75;;;1.38;;
21987;SDS011;11158;53.404;-1.510;2023-05-01T07:11:11;3.40;;;1.60;;
21987;SDS011;11158;53.404;-1.510;2023-05-01T07:13:55;2.42;;;1.55;;
21987;SDS011;11158;53.404;-1.510;2023-05-01T07:16:39;2.90;;;1.38;;
21987;SDS011;11158;53.404;-1.510;2023-05-01T07:19:24;2.75;;;1.55;;
21987;SDS011;11158;53.404;-1.510;2023-05-01T07:22:08;1.60;;;1.30;;
21987;SDS011;11158;53.404;-1.510;2023-05-01T07:24:53;1.95;;;1.50;;
21987;SDS011;11158;53.404;-1.510;2023-05-01T07:27:37;2.90;;;1.20;;
21987;SDS011;11158;53.404;-1.510;2023-05-01T07:30:21;1.23;;;1.00;;
21987;SDS011;11158;53.404;-1.510;2023-05-01T07:33:06;2.03;;;1.48;;
21987;SDS011;11158;53.404;-1.510;2023-05-01T07:35:50;3.58;;;1.45;;
21987;SDS011;11158;53.404;-1.510;2023-05-01T07:38:34;2.22;;;1.70;;
21987;SDS011;11158;53.404;-1.510;2023-05-01T07:41:18;4.22;;;1.40;;
21987;SDS011;11158;53.404;-1.510;2023-05-01T07:44:02;2.50;;;1.52;;
21987;SDS011;11158;53.404;-1.510;2023-05-01T07:46:46;2.10;;;1.48;;
21987;SDS011;11158;53.404;-1.510;2023-05-01T07:49:35;2.58;;;1.30;;
21987;SDS011;11158;53.404;-1.510;2023-05-01T07:52:22;2.78;;;1.50;;
21987;SDS011;11158;53.404;-1.510;2023-05-01T07:55:06;2.50;;;1.40;;
21987;SDS011;11158;53.404;-1.510;2023-05-01T07:57:51;2.45;;;1.20;;
21987;SDS011;11158;53.404;-1.510;2023-05-01T08:00:35;2.35;;;1.25;;
21987;SDS011;11158;53.404;-1.510;2023-05-01T08:03:19;2.42;;;1.10;;
21987;SDS011;11158;53.404;-1.510;2023-05-01T08:06:04;5.10;;;1.35;;
21987;SDS011;11158;53.404;-1.510;2023-05-01T08:08:48;2.85;;;1.48;;
21987;SDS011;11158;53.404;-1.510;2023-05-01T08:11:32;2.33;;;1.30;;
21987;SDS011;11158;53.404;-1.510;2023-05-01T08:14:16;2.78;;;1.15;;
21987;SDS011;11158;53.404;-1.510;2023-05-01T08:17:02;2.65;;;0.98;;
21987;SDS011;11158;53.404;-1.510;2023-05-01T08:19:46;1.92;;;1.10;;
21987;SDS011;11158;53.404;-1.510;2023-05-01T08:22:30;2.95;;;0.88;;
21987;SDS011;11158;53.404;-1.510;2023-05-01T08:25:15;1.92;;;0.90;;
21987;SDS011;11158;53.404;-1.510;2023-05-01T08:27:59;1.40;;;0.80;;
21987;SDS011;11158;53.404;-1.510;2023-05-01T08:30:43;1.92;;;0.95;;
21987;SDS011;11158;53.404;-1.510;2023-05-01T08:33:27;3.17;;;0.95;;
21987;SDS011;11158;53.404;-1.510;2023-05-01T08:36:11;1.05;;;0.75;;
21987;SDS011;11158;53.404;-1.510;2023-05-01T08:38:55;3.55;;;1.05;;
21987;SDS011;11158;53.404;-1.510;2023-05-01T08:41:39;2.20;;;0.90;;
21987;SDS011;11158;53.404;-1.510;2023-05-01T08:44:24;2.58;;;0.85;;
21987;SDS011;11158;53.404;-1.510;2023-05-01T08:47:10;2.30;;;0.90;;
21987;SDS011;11158;53.404;-1.510;2023-05-01T08:49:58;3.08;;;0.88;;
21987;SDS011;11158;53.404;-1.510;2023-05-01T08:52:43;1.65;;;0.85;;
21987;SDS011;11158;53.404;-1.510;2023-05-01T08:55:29;1.88;;;0.80;;
21987;SDS011;11158;53.404;-1.510;2023-05-01T08:58:14;0.88;;;0.70;;
21987;SDS011;11158;53.404;-1.510;2023-05-01T09:01:01;2.47;;;0.85;;
21987;SDS011;11158;53.404;-1.510;2023-05-01T09:03:46;2.80;;;0.82;;
21987;SDS011;11158;53.404;-1.510;2023-05-01T09:06:32;1.00;;;0.70;;
21987;SDS011;11158;53.404;-1.510;2023-05-01T09:09:17;2.67;;;0.70;;
21987;SDS011;11158;53.404;-1.510;2023-05-01T09:15:18;2.05;;;0.90;;
21987;SDS011;11158;53.404;-1.510;2023-05-01T09:18:03;2.72;;;0.95;;
21987;SDS011;11158;53.404;-1.510;2023-05-01T09:20:48;3.08;;;1.15;;
21987;SDS011;11158;53.404;-1.510;2023-05-01T09:23:32;2.28;;;0.63;;
21987;SDS011;11158;53.404;-1.510;2023-05-01T09:26:18;1.73;;;0.80;;
21987;SDS011;11158;53.404;-1.510;2023-05-01T09:29:02;1.17;;;0.73;;
21987;SDS011;11158;53.404;-1.510;2023-05-01T09:31:47;1.27;;;0.77;;
21987;SDS011;11158;53.404;-1.510;2023-05-01T09:34:31;1.48;;;0.70;;
21987;SDS011;11158;53.404;-1.510;2023-05-01T09:37:28;1.90;;;0.60;;
21987;SDS011;11158;53.404;-1.510;2023-05-01T09:40:13;0.75;;;0.50;;
21987;SDS011;11158;53.404;-1.510;2023-05-01T09:42:57;2.17;;;0.55;;
21987;SDS011;11158;53.404;-1.510;2023-05-01T09:45:41;1.98;;;0.45;;
21987;SDS011;11158;53.404;-1.510;2023-05-01T09:48:25;0.95;;;0.60;;
21987;SDS011;11158;53.404;-1.510;2023-05-01T09:54:03;2.40;;;0.75;;
21987;SDS011;11158;53.404;-1.510;2023-05-01T09:56:49;0.63;;;0.57;;
21987;SDS011;11158;53.404;-1.510;2023-05-01T09:59:33;1.13;;;0.60;;
21987;SDS011;11158;53.404;-1.510;2023-05-01T10:02:27;1.33;;;0.75;;
21987;SDS011;11158;53.404;-1.510;2023-05-01T10:05:13;2.50;;;1.02;;
21987;SDS011;11158;53.404;-1.510;2023-05-01T10:07:59;2.20;;;0.65;;
21987;SDS011;11158;53.404;-1.510;2023-05-01T10:10:44;3.05;;;0.65;;
21987;SDS011;11158;53.404;-1.510;2023-05-01T10:13:42;0.60;;;0.40;;
21987;SDS011;11158;53.404;-1.510;2023-05-01T10:16:28;0.60;;;0.50;;
21987;SDS011;11158;53.404;-1.510;2023-05-01T10:19:13;0.50;;;0.40;;
21987;SDS011;11158;53.404;-1.510;2023-05-01T10:21:59;0.65;;;0.35;;
21987;SDS011;11158;53.404;-1.510;2023-05-01T10:24:44;1.70;;;0.60;;
21987;SDS011;11158;53.404;-1.510;2023-05-01T10:27:29;1.13;;;0.70;;
21987;SDS011;11158;53.404;-1.510;2023-05-01T10:30:13;1.08;;;0.50;;
21987;SDS011;11158;53.404;-1.510;2023-05-01T10:33:00;0.57;;;0.32;;
21987;SDS011;11158;53.404;-1.510;2023-05-01T10:35:47;0.75;;;0.50;;
21987;SDS011;11158;53.404;-1.510;2023-05-01T10:38:37;1.48;;;0.43;;
21987;SDS011;11158;53.404;-1.510;2023-05-01T10:44:41;0.93;;;0.40;;
21987;SDS011;11158;53.404;-1.510;2023-05-01T10:50:11;0.65;;;0.43;;
21987;SDS011;11158;53.404;-1.510;2023-05-01T10:55:58;2.40;;;0.65;;
21987;SDS011;11158;53.404;-1.510;2023-05-01T11:07:29;0.85;;;0.40;;
21987;SDS011;11158;53.404;-1.510;2023-05-01T11:10:25;1.13;;;0.47;;
21987;SDS011;11158;53.404;-1.510;2023-05-01T11:13:10;1.13;;;0.60;;
21987;SDS011;11158;53.404;-1.510;2023-05-01T11:15:54;1.00;;;0.55;;
21987;SDS011;11158;53.404;-1.510;2023-05-01T11:18:44;1.38;;;0.50;;
21987;SDS011;11158;53.404;-1.510;2023-05-01T11:21:33;0.43;;;0.30;;
21987;SDS011;11158;53.404;-1.510;2023-05-01T11:24:19;1.17;;;0.60;;
21987;SDS011;11158;53.404;-1.510;2023-05-01T11:27:03;0.75;;;0.30;;
21987;SDS011;11158;53.404;-1.510;2023-05-01T11:29:49;0.80;;;0.30;;
21987;SDS011;11158;53.404;-1.510;2023-05-01T11:32:33;0.73;;;0.20;;
21987;SDS011;11158;53.404;-1.510;2023-05-01T11:35:20;0.45;;;0.30;;
21987;SDS011;11158;53.404;-1.510;2023-05-01T11:38:04;0.20;;;0.20;;
21987;SDS011;11158;53.404;-1.510;2023-05-01T11:40:52;2.05;;;0.40;;
21987;SDS011;11158;53.404;-1.510;2023-05-01T11:43:47;1.02;;;0.30;;
21987;SDS011;11158;53.404;-1.510;2023-05-01T11:46:39;0.50;;;0.30;;
21987;SDS011;11158;53.404;-1.510;2023-05-01T11:49:26;0.25;;;0.25;;
21987;SDS011;11158;53.404;-1.510;2023-05-01T11:52:13;0.88;;;0.40;;
21987;SDS011;11158;53.404;-1.510;2023-05-01T11:54:57;0.30;;;0.30;;
21987;SDS011;11158;53.404;-1.510;2023-05-01T12:00:33;0.70;;;0.30;;
21987;SDS011;11158;53.404;-1.510;2023-05-01T12:03:20;1.10;;;0.40;;
21987;SDS011;11158;53.404;-1.510;2023-05-01T12:06:05;2.47;;;0.30;;
21987;SDS011;11158;53.404;-1.510;2023-05-01T12:08:51;4.05;;;0.40;;
21987;SDS011;11158;53.404;-1.510;2023-05-01T12:11:36;0.30;;;0.30;;
21987;SDS011;11158;53.404;-1.510;2023-05-01T12:14:21;0.73;;;0.45;;
21987;SDS011;11158;53.404;-1.510;2023-05-01T12:17:08;1.20;;;0.40;;
21987;SDS011;11158;53.404;-1.510;2023-05-01T12:19:54;0.93;;;0.65;;
21987;SDS011;11158;53.404;-1.510;2023-05-01T12:22:48;1.58;;;0.75;;
21987;SDS011;11158;53.404;-1.510;2023-05-01T12:25:33;0.63;;;0.35;;
21987;SDS011;11158;53.404;-1.510;2023-05-01T12:28:18;1.60;;;0.40;;
21987;SDS011;11158;53.404;-1.510;2023-05-01T12:31:03;1.65;;;0.60;;
21987;SDS011;11158;53.404;-1.510;2023-05-01T12:33:56;0.52;;;0.30;;
21987;SDS011;11158;53.404;-1.510;2023-05-01T12:36:53;0.50;;;0.32;;
21987;SDS011;11158;53.404;-1.510;2023-05-01T12:39:38;1.38;;;0.50;;
21987;SDS011;11158;53.404;-1.510;2023-05-01T12:42:25;1.65;;;0.60;;
21987;SDS011;11158;53.404;-1.510;2023-05-01T12:45:09;0.80;;;0.50;;
21987;SDS011;11158;53.404;-1.510;2023-05-01T12:47:57;0.85;;;0.45;;
21987;SDS011;11158;53.404;-1.510;2023-05-01T12:50:41;0.45;;;0.30;;
21987;SDS011;11158;53.404;-1.510;2023-05-01T12:53:26;2.92;;;0.40;;
21987;SDS011;11158;53.404;-1.510;2023-05-01T12:56:21;1.83;;;0.50;;
21987;SDS011;11158;53.404;-1.510;2023-05-01T12:59:14;0.63;;;0.40;;
21987;SDS011;11158;53.404;-1.510;2023-05-01T13:02:06;1.30;;;0.40;;
21987;SDS011;11158;53.404;-1.510;2023-05-01T13:05:07;0.60;;;0.50;;
21987;SDS011;11158;53.404;-1.510;2023-05-01T13:07:53;1.27;;;0.57;;
21987;SDS011;11158;53.404;-1.510;2023-05-01T13:10:37;3.33;;;0.40;;
21987;SDS011;11158;53.404;-1.510;2023-05-01T13:13:40;1.23;;;0.55;;
21987;SDS011;11158;53.404;-1.510;2023-05-01T13:16:26;1.83;;;0.40;;
21987;SDS011;11158;53.404;-1.510;2023-05-01T13:19:10;3.72;;;0.57;;
21987;SDS011;11158;53.404;-1.510;2023-05-01T13:21:56;0.50;;;0.40;;
21987;SDS011;11158;53.404;-1.510;2023-05-01T13:24:41;1.27;;;0.50;;
21987;SDS011;11158;53.404;-1.510;2023-05-01T13:27:27;1.55;;;0.50;;
21987;SDS011;11158;53.404;-1.510;2023-05-01T13:30:11;1.15;;;0.47;;
21987;SDS011;11158;53.404;-1.510;2023-05-01T13:32:55;2.25;;;0.55;;
21987;SDS011;11158;53.404;-1.510;2023-05-01T13:35:39;1.00;;;0.35;;
21987;SDS011;11158;53.404;-1.510;2023-05-01T13:38:24;0.93;;;0.40;;
21987;SDS011;11158;53.404;-1.510;2023-05-01T13:41:12;0.77;;;0.40;;
21987;SDS011;11158;53.404;-1.510;2023-05-01T13:43:58;1.25;;;0.50;;
21987;SDS011;11158;53.404;-1.510;2023-05-01T13:46:42;0.77;;;0.50;;
21987;SDS011;11158;53.404;-1.510;2023-05-01T13:49:26;2.08;;;0.43;;
21987;SDS011;11158;53.404;-1.510;2023-05-01T13:52:15;1.30;;;0.40;;
21987;SDS011;11158;53.404;-1.510;2023-05-01T13:55:00;1.50;;;0.60;;
21987;SDS011;11158;53.404;-1.510;2023-05-01T13:57:49;0.70;;;0.52;;
21987;SDS011;11158;53.404;-1.510;2023-05-01T14:00:33;0.45;;;0.45;;
21987;SDS011;11158;53.404;-1.510;2023-05-01T14:03:17;0.43;;;0.40;;
21987;SDS011;11158;53.404;-1.510;2023-05-01T14:06:02;1.58;;;0.38;;
21987;SDS011;11158;53.404;-1.510;2023-05-01T14:08:47;1.30;;;0.50;;
21987;SDS011;11158;53.404;-1.510;2023-05-01T14:11:33;0.90;;;0.50;;
21987;SDS011;11158;53.404;-1.510;2023-05-01T14:14:17;0.65;;;0.25;;
21987;SDS011;11158;53.404;-1.510;2023-05-01T14:17:02;1.60;;;0.55;;
21987;SDS011;11158;53.404;-1.510;2023-05-01T14:19:50;1.90;;;0.40;;
21987;SDS011;11158;53.404;-1.510;2023-05-01T14:22:39;1.00;;;0.38;;
21987;SDS011;11158;53.404;-1.510;2023-05-01T14:25:27;1.95;;;0.40;;
21987;SDS011;11158;53.404;-1.510;2023-05-01T14:28:14;0.95;;;0.57;;
21987;SDS011;11158;53.404;-1.510;2023-05-01T14:30:58;3.08;;;0.43;;
21987;SDS011;11158;53.404;-1.510;2023-05-01T14:33:42;0.93;;;0.40;;
21987;SDS011;11158;53.404;-1.510;2023-05-01T14:36:27;1.42;;;1.20;;
21987;SDS011;11158;53.404;-1.510;2023-05-01T14:39:16;2.75;;;2.47;;
21987;SDS011;11158;53.404;-1.510;2023-05-01T14:42:01;2.08;;;0.95;;
21987;SDS011;11158;53.404;-1.510;2023-05-01T14:44:46;1.98;;;0.80;;
21987;SDS011;11158;53.404;-1.510;2023-05-01T14:47:30;0.85;;;0.68;;
21987;SDS011;11158;53.404;-1.510;2023-05-01T14:50:18;0.98;;;0.43;;
21987;SDS011;11158;53.404;-1.510;2023-05-01T14:53:04;1.52;;;0.60;;
21987;SDS011;11158;53.404;-1.510;2023-05-01T14:55:49;0.95;;;0.47;;
21987;SDS011;11158;53.404;-1.510;2023-05-01T14:58:35;0.32;;;0.28;;
21987;SDS011;11158;53.404;-1.510;2023-05-01T15:01:19;0.30;;;0.30;;
21987;SDS011;11158;53.404;-1.510;2023-05-01T15:04:03;0.50;;;0.40;;
21987;SDS011;11158;53.404;-1.510;2023-05-01T15:06:50;1.48;;;0.30;;
21987;SDS011;11158;53.404;-1.510;2023-05-01T15:09:34;1.05;;;0.40;;
21987;SDS011;11158;53.404;-1.510;2023-05-01T15:12:19;0.82;;;0.40;;
21987;SDS011;11158;53.404;-1.510;2023-05-01T15:15:03;1.33;;;0.47;;
21987;SDS011;11158;53.404;-1.510;2023-05-01T15:17:48;0.90;;;0.40;;
21987;SDS011;11158;53.404;-1.510;2023-05-01T15:20:31;0.47;;;0.47;;
21987;SDS011;11158;53.404;-1.510;2023-05-01T15:23:15;0.32;;;0.25;;
21987;SDS011;11158;53.404;-1.510;2023-05-01T15:26:00;0.47;;;0.40;;
21987;SDS011;11158;53.404;-1.510;2023-05-01T15:28:45;0.30;;;0.30;;
21987;SDS011;11158;53.404;-1.510;2023-05-01T15:31:29;0.47;;;0.30;;
21987;SDS011;11158;53.404;-1.510;2023-05-01T15:34:13;0.25;;;0.25;;
21987;SDS011;11158;53.404;-1.510;2023-05-01T15:36:57;1.23;;;0.40;;
21987;SDS011;11158;53.404;-1.510;2023-05-01T15:39:42;0.68;;;0.25;;
21987;SDS011;11158;53.404;-1.510;2023-05-01T15:42:31;0.52;;;0.52;;
21987;SDS011;11158;53.404;-1.510;2023-05-01T15:45:15;0.25;;;0.20;;
21987;SDS011;11158;53.404;-1.510;2023-05-01T15:48:00;0.32;;;0.32;;
21987;SDS011;11158;53.404;-1.510;2023-05-01T15:50:44;1.15;;;0.50;;
21987;SDS011;11158;53.404;-1.510;2023-05-01T15:53:28;1.17;;;0.32;;
21987;SDS011;11158;53.404;-1.510;2023-05-01T15:56:12;0.50;;;0.30;;
21987;SDS011;11158;53.404;-1.510;2023-05-01T15:58:59;1.23;;;0.32;;
21987;SDS011;11158;53.404;-1.510;2023-05-01T16:01:44;0.57;;;0.40;;
21987;SDS011;11158;53.404;-1.510;2023-05-01T16:04:28;0.35;;;0.30;;
21987;SDS011;11158;53.404;-1.510;2023-05-01T16:07:13;3.17;;;0.60;;
21987;SDS011;11158;53.404;-1.510;2023-05-01T16:09:57;0.55;;;0.30;;
21987;SDS011;11158;53.404;-1.510;2023-05-01T16:12:42;1.35;;;0.38;;
21987;SDS011;11158;53.404;-1.510;2023-05-01T16:15:26;0.90;;;0.32;;
21987;SDS011;11158;53.404;-1.510;2023-05-01T16:18:14;1.23;;;0.55;;
21987;SDS011;11158;53.404;-1.510;2023-05-01T16:21:02;0.95;;;0.40;;
21987;SDS011;11158;53.404;-1.510;2023-05-01T16:23:47;0.60;;;0.45;;
21987;SDS011;11158;53.404;-1.510;2023-05-01T16:26:31;1.90;;;0.47;;
21987;SDS011;11158;53.404;-1.510;2023-05-01T16:29:16;3.47;;;0.40;;
21987;SDS011;11158;53.404;-1.510;2023-05-01T16:32:02;0.93;;;0.43;;
21987;SDS011;11158;53.404;-1.510;2023-05-01T16:34:48;1.17;;;0.60;;
21987;SDS011;11158;53.404;-1.510;2023-05-01T16:37:32;2.70;;;1.20;;
21987;SDS011;11158;53.404;-1.510;2023-05-01T16:40:16;3.58;;;2.35;;
21987;SDS011;11158;53.404;-1.510;2023-05-01T16:43:01;1.77;;;0.90;;
21987;SDS011;11158;53.404;-1.510;2023-05-01T16:45:45;1.90;;;1.25;;
21987;SDS011;11158;53.404;-1.510;2023-05-01T16:48:30;3.00;;;1.92;;
21987;SDS011;11158;53.404;-1.510;2023-05-01T16:51:17;2.33;;;0.90;;
21987;SDS011;11158;53.404;-1.510;2023-05-01T16:54:03;2.63;;;1.20;;
21987;SDS011;11158;53.404;-1.510;2023-05-01T16:56:47;0.95;;;0.55;;
21987;SDS011;11158;53.404;-1.510;2023-05-01T16:59:32;1.85;;;0.68;;